Time;durP1;ratioP1;P1;durP2;ratioP2;P2;SDS_P1;SDS_P2;PMS_P1;PMS_P2;Temp;Humidity;BMP_temperature;BMP_pressure;BME280_temperature;BME280_humidity;BME280_pressure;Samples;Min_cycle;Max_cycle;Signal;HPM_P1;HPM_P2
2023/12/05 00:01:56;;;;;;;25.02;15.18;;;1.30;99.90;;;;;;5010516;28;20049;-60
2023/12/05 00:04:22;;;;;;;26.75;16.30;;;1.30;99.90;;;;;;5003470;28;20331;-60
2023/12/05 00:06:47;;;;;;;27.70;15.90;;;1.30;99.90;;;;;;5007553;28;20053;-61
2023/12/05 00:09:14;;;;;;;25.05;15.55;;;1.30;99.90;;;;;;5001857;28;21412;-59
2023/12/05 00:11:43;;;;;;;24.08;14.95;;;1.30;99.90;;;;;;5022527;28;20029;-60
2023/12/05 00:14:08;;;;;;;26.90;16.13;;;1.30;99.90;;;;;;5004402;28;20633;-60
2023/12/05 00:16:34;;;;;;;25.13;16.50;;;1.30;99.90;;;;;;5016737;28;20108;-60
2023/12/05 00:19:00;;;;;;;25.30;15.48;;;1.40;99.90;;;;;;5018070;28;20079;-60
2023/12/05 00:21:25;;;;;;;29.15;16.27;;;1.40;99.90;;;;;;5019819;28;20203;-60
2023/12/05 00:23:51;;;;;;;29.00;17.80;;;1.30;99.90;;;;;;5023122;28;20084;-61
2023/12/05 00:26:17;;;;;;;26.13;16.23;;;1.30;99.90;;;;;;5015922;28;20039;-61
2023/12/05 00:28:42;;;;;;;25.70;16.35;;;1.30;99.90;;;;;;5007830;28;20504;-61
2023/12/05 00:31:08;;;;;;;28.70;16.73;;;1.40;99.90;;;;;;5016639;28;20045;-61
2023/12/05 00:33:34;;;;;;;27.13;16.13;;;1.30;99.90;;;;;;4994210;28;20522;-60
2023/12/05 00:36:00;;;;;;;26.30;16.52;;;1.30;99.90;;;;;;4998612;28;20052;-60
2023/12/05 00:38:26;;;;;;;26.67;16.50;;;1.30;99.90;;;;;;5017956;28;20045;-61
2023/12/05 00:40:51;;;;;;;29.25;17.92;;;1.30;99.90;;;;;;4984654;28;20400;-61
2023/12/05 00:43:17;;;;;;;27.33;16.67;;;1.30;99.90;;;;;;5002643;28;20049;-60
2023/12/05 00:45:43;;;;;;;27.60;16.52;;;1.30;99.90;;;;;;5017891;28;20064;-60
2023/12/05 00:48:08;;;;;;;25.63;15.80;;;1.30;99.90;;;;;;4983137;28;20119;-60
2023/12/05 00:50:34;;;;;;;27.13;16.67;;;1.30;99.90;;;;;;5000773;28;20046;-61
2023/12/05 00:53:00;;;;;;;25.58;15.68;;;1.40;99.90;;;;;;5021893;28;20044;-61
2023/12/05 00:55:26;;;;;;;23.10;15.40;;;1.40;99.90;;;;;;5000005;28;20811;-61
2023/12/05 00:57:51;;;;;;;24.15;16.17;;;1.40;99.90;;;;;;5021822;28;20042;-61
2023/12/05 01:00:17;;;;;;;27.80;16.60;;;1.40;99.90;;;;;;4999806;28;20489;-61
2023/12/05 01:02:43;;;;;;;24.17;16.05;;;1.40;99.90;;;;;;5017493;28;20468;-60
2023/12/05 01:05:09;;;;;;;27.83;17.77;;;1.40;99.90;;;;;;5001712;28;20052;-60
2023/12/05 01:07:36;;;;;;;27.88;17.08;;;1.40;99.90;;;;;;4985770;28;20500;-60
2023/12/05 01:10:03;;;;;;;28.83;17.25;;;1.30;99.90;;;;;;4989104;28;20073;-61
2023/12/05 01:12:29;;;;;;;24.55;16.40;;;1.40;99.90;;;;;;5021503;28;20042;-60
2023/12/05 01:14:55;;;;;;;24.48;15.73;;;1.40;99.90;;;;;;5015297;28;20033;-60
2023/12/05 01:17:20;;;;;;;26.25;17.15;;;1.30;99.90;;;;;;5002765;28;20442;-60
2023/12/05 01:19:46;;;;;;;25.55;17.25;;;1.40;99.90;;;;;;4996259;28;20096;-61
2023/12/05 01:22:12;;;;;;;27.60;18.05;;;1.30;99.90;;;;;;5006033;28;20045;-61
2023/12/05 01:24:40;;;;;;;28.73;19.48;;;1.30;99.90;;;;;;5004208;28;20626;-60
2023/12/05 01:27:05;;;;;;;26.92;18.17;;;1.30;99.90;;;;;;5017974;28;20531;-60
2023/12/05 01:29:31;;;;;;;28.50;19.45;;;1.40;99.90;;;;;;5020089;28;20034;-60
2023/12/05 01:31:57;;;;;;;31.00;21.15;;;1.30;99.90;;;;;;5019632;28;20040;-59
2023/12/05 01:34:22;;;;;;;32.65;20.08;;;1.30;99.90;;;;;;5013590;28;20509;-60
2023/12/05 01:36:48;;;;;;;29.40;20.13;;;1.30;99.90;;;;;;4998313;28;20029;-60
2023/12/05 01:40:04;;;;;;;31.77;20.77;;;1.30;99.90;;;;;;5021433;28;20724;-60
2023/12/05 01:42:29;;;;;;;31.67;20.08;;;1.30;99.90;;;;;;4984696;28;20045;-60
2023/12/05 01:44:55;;;;;;;31.65;20.95;;;1.20;99.90;;;;;;4990954;28;20496;-60
2023/12/05 01:47:21;;;;;;;31.55;19.95;;;1.30;99.90;;;;;;4990890;28;20057;-61
2023/12/05 01:49:47;;;;;;;29.17;19.48;;;1.30;99.90;;;;;;4999746;28;20045;-60
2023/12/05 01:52:14;;;;;;;33.15;20.65;;;1.20;99.90;;;;;;4999752;28;20327;-60
2023/12/05 01:54:40;;;;;;;33.17;21.38;;;1.30;99.90;;;;;;5016687;28;20508;-61
2023/12/05 01:57:06;;;;;;;31.45;20.98;;;1.20;99.90;;;;;;5001239;28;20497;-61
2023/12/05 01:59:32;;;;;;;27.20;18.40;;;1.20;99.90;;;;;;4998703;28;22218;-61
2023/12/05 02:01:58;;;;;;;29.95;19.58;;;1.20;99.90;;;;;;4995700;28;20056;-60
2023/12/05 02:04:25;;;;;;;32.08;20.67;;;1.20;99.90;;;;;;5010103;28;20103;-60
2023/12/05 02:06:51;;;;;;;30.92;19.15;;;1.20;99.90;;;;;;5018629;28;20500;-61
2023/12/05 02:09:19;;;;;;;28.92;19.52;;;1.20;99.90;;;;;;5015072;28;20037;-61
2023/12/05 02:11:45;;;;;;;30.15;19.85;;;1.20;99.90;;;;;;5000884;28;20125;-61
2023/12/05 02:14:10;;;;;;;32.45;19.98;;;1.20;99.90;;;;;;5002455;28;20045;-61
2023/12/05 02:16:42;;;;;;;32.30;20.65;;;1.20;99.90;;;;;;5020576;28;20572;-61
2023/12/05 02:19:39;;;;;;;31.98;20.77;;;1.20;99.90;;;;;;5004252;28;20448;-61
2023/12/05 02:22:26;;;;;;;32.88;20.70;;;1.20;99.90;;;;;;5011971;28;20040;-61
2023/12/05 02:25:13;;;;;;;31.35;20.25;;;1.20;99.90;;;;;;5000384;28;20036;-61
2023/12/05 02:27:41;;;;;;;31.63;20.02;;;1.10;99.90;;;;;;5001543;28;20045;-61
2023/12/05 02:30:08;;;;;;;29.65;20.77;;;1.10;99.90;;;;;;5005347;28;20097;-61
2023/12/05 02:32:34;;;;;;;33.95;20.60;;;1.20;99.90;;;;;;5016260;28;20040;-61
2023/12/05 02:35:00;;;;;;;31.13;20.98;;;1.10;99.90;;;;;;5017464;28;20662;-61
2023/12/05 02:37:43;;;;;;;33.05;20.10;;;1.20;99.90;;;;;;4986851;28;20694;-60
2023/12/05 02:40:25;;;;;;;33.78;20.60;;;1.20;99.90;;;;;;5012667;28;20034;-60
2023/12/05 02:42:51;;;;;;;31.63;20.25;;;1.10;99.90;;;;;;5000028;28;20357;-61
2023/12/05 02:45:20;;;;;;;31.70;20.08;;;1.20;99.90;;;;;;5006814;28;20061;-60
2023/12/05 02:47:48;;;;;;;31.05;20.48;;;1.20;99.90;;;;;;5026730;28;20492;-61
2023/12/05 02:50:18;;;;;;;33.58;21.10;;;1.20;99.90;;;;;;5002868;28;20052;-61
2023/12/05 02:52:44;;;;;;;34.47;21.25;;;1.10;99.90;;;;;;5014889;28;20955;-61
2023/12/05 02:55:10;;;;;;;30.65;19.75;;;1.10;99.90;;;;;;4984988;28;20047;-61
2023/12/05 02:57:36;;;;;;;35.63;21.92;;;1.20;99.90;;;;;;5005727;28;20049;-61
2023/12/05 03:00:04;;;;;;;31.90;20.77;;;1.10;99.90;;;;;;5020807;28;20044;-61
2023/12/05 03:02:30;;;;;;;31.92;21.05;;;1.10;99.90;;;;;;4973932;28;20153;-61
2023/12/05 03:04:55;;;;;;;31.48;20.70;;;1.10;99.90;;;;;;5017634;28;20117;-61
2023/12/05 03:07:21;;;;;;;32.63;20.17;;;1.20;99.90;;;;;;5017865;28;20057;-60
2023/12/05 03:09:47;;;;;;;30.73;21.08;;;1.10;99.90;;;;;;5016017;28;20033;-60
2023/12/05 03:12:13;;;;;;;32.10;20.13;;;1.10;99.90;;;;;;5023510;28;20048;-61
2023/12/05 03:14:38;;;;;;;36.03;21.75;;;1.10;99.90;;;;;;5005913;28;20068;-61
2023/12/05 03:17:04;;;;;;;33.85;21.48;;;1.10;99.90;;;;;;5008949;28;20044;-61
2023/12/05 03:19:29;;;;;;;33.92;21.13;;;1.10;99.90;;;;;;5020271;28;20640;-61
2023/12/05 03:21:55;;;;;;;34.30;22.10;;;1.10;99.90;;;;;;4987843;28;20048;-61
2023/12/05 03:24:21;;;;;;;34.22;21.67;;;1.10;99.90;;;;;;5000490;28;20063;-61
2023/12/05 03:26:47;;;;;;;35.00;21.25;;;1.10;99.90;;;;;;5018879;28;20508;-60
2023/12/05 03:29:12;;;;;;;36.22;22.33;;;1.10;99.90;;;;;;5003895;28;20284;-61
2023/12/05 03:31:40;;;;;;;31.77;21.15;;;1.10;99.90;;;;;;5028754;28;20033;-61
2023/12/05 03:34:06;;;;;;;32.78;20.67;;;1.10;99.90;;;;;;5004867;28;20030;-61
2023/12/05 03:36:32;;;;;;;35.25;22.63;;;1.00;99.90;;;;;;5006105;28;20043;-61
2023/12/05 03:38:58;;;;;;;35.08;22.00;;;1.00;99.90;;;;;;5003587;28;20516;-62
2023/12/05 03:41:25;;;;;;;36.72;22.70;;;1.10;99.90;;;;;;5018992;28;20042;-61
2023/12/05 03:43:50;;;;;;;31.40;20.90;;;1.10;99.90;;;;;;5021857;28;20033;-61
2023/12/05 03:46:16;;;;;;;33.92;20.98;;;1.10;99.90;;;;;;5001990;28;20064;-61
2023/12/05 03:48:42;;;;;;;32.60;20.63;;;1.10;99.90;;;;;;5009225;28;20051;-61
2023/12/05 03:51:08;;;;;;;34.50;21.73;;;1.00;99.90;;;;;;5000318;28;20037;-61
2023/12/05 03:53:33;;;;;;;36.28;22.33;;;1.00;99.90;;;;;;5015515;28;20087;-61
2023/12/05 03:55:59;;;;;;;32.65;21.98;;;1.10;99.90;;;;;;5031440;28;20080;-61
2023/12/05 03:58:25;;;;;;;34.70;21.05;;;1.00;99.90;;;;;;4981817;28;20049;-61
2023/12/05 04:00:51;;;;;;;34.47;21.73;;;1.00;99.90;;;;;;5005281;28;20133;-61
2023/12/05 04:03:16;;;;;;;31.98;21.88;;;1.10;99.90;;;;;;4990596;28;20548;-61
2023/12/05 04:05:42;;;;;;;31.92;21.02;;;1.00;99.90;;;;;;5010085;28;20041;-61
2023/12/05 04:08:08;;;;;;;39.05;23.83;;;1.00;99.90;;;;;;5005914;28;20563;-61
2023/12/05 04:10:33;;;;;;;35.67;24.27;;;1.00;99.90;;;;;;5024341;28;20057;-61
2023/12/05 04:12:59;;;;;;;32.72;21.35;;;1.10;99.90;;;;;;5027446;28;20378;-61
2023/12/05 04:15:25;;;;;;;35.75;22.63;;;1.10;99.90;;;;;;5008931;28;20044;-61
2023/12/05 04:17:51;;;;;;;36.30;22.73;;;1.10;99.90;;;;;;4995332;28;20084;-61
2023/12/05 04:20:17;;;;;;;38.53;23.77;;;1.10;99.90;;;;;;5024776;28;20044;-61
2023/12/05 04:22:43;;;;;;;32.85;21.08;;;1.10;99.90;;;;;;5009798;28;20049;-61
2023/12/05 04:25:10;;;;;;;36.88;22.98;;;1.10;99.90;;;;;;5028118;28;20072;-60
2023/12/05 04:27:36;;;;;;;37.35;22.45;;;1.10;99.90;;;;;;5004881;28;20041;-61
2023/12/05 04:30:04;;;;;;;35.55;22.33;;;1.10;99.90;;;;;;5009322;28;20092;-60
2023/12/05 04:32:30;;;;;;;37.50;22.20;;;1.10;99.90;;;;;;5005388;28;20121;-61
2023/12/05 04:34:55;;;;;;;40.30;23.33;;;1.10;99.90;;;;;;5022541;28;20133;-61
2023/12/05 04:37:21;;;;;;;39.03;24.55;;;1.10;99.90;;;;;;4983458;28;20185;-61
2023/12/05 04:39:47;;;;;;;38.17;23.23;;;1.10;99.90;;;;;;5028467;28;20049;-61
2023/12/05 04:42:12;;;;;;;38.00;24.20;;;1.10;99.90;;;;;;4993467;28;20401;-61
2023/12/05 04:44:38;;;;;;;36.53;21.10;;;1.00;99.90;;;;;;5012537;28;20105;-61
2023/12/05 04:47:04;;;;;;;32.05;21.75;;;1.00;99.90;;;;;;4988682;28;20041;-60
2023/12/05 04:49:30;;;;;;;37.65;23.80;;;1.10;99.90;;;;;;4989424;28;20036;-60
2023/12/05 04:51:56;;;;;;;36.85;23.02;;;1.10;99.90;;;;;;5000911;28;20049;-61
2023/12/05 04:54:21;;;;;;;34.90;22.58;;;1.00;99.90;;;;;;5015201;28;20102;-60
2023/12/05 04:56:47;;;;;;;36.38;22.88;;;1.00;99.90;;;;;;5017282;28;20034;-61
2023/12/05 04:59:13;;;;;;;36.80;23.10;;;1.00;99.90;;;;;;4989032;28;20037;-60
2023/12/05 05:01:38;;;;;;;37.22;23.95;;;1.00;99.90;;;;;;4984576;28;20033;-60
2023/12/05 05:04:04;;;;;;;40.90;23.02;;;1.00;99.90;;;;;;5004805;28;20033;-60
2023/12/05 05:06:30;;;;;;;40.25;24.45;;;1.00;99.90;;;;;;5001123;28;20105;-60
2023/12/05 05:08:56;;;;;;;37.83;23.20;;;1.00;99.90;;;;;;5003824;28;20062;-61
2023/12/05 05:11:23;;;;;;;45.10;23.83;;;1.00;99.90;;;;;;5018880;28;20045;-61
2023/12/05 05:13:48;;;;;;;36.90;23.40;;;1.00;99.90;;;;;;4996568;28;20045;-61
2023/12/05 05:16:14;;;;;;;38.63;23.63;;;1.00;99.90;;;;;;4991786;28;20044;-61
2023/12/05 05:18:40;;;;;;;36.88;24.42;;;1.00;99.90;;;;;;5003053;28;20257;-61
2023/12/05 05:21:06;;;;;;;42.60;25.25;;;1.00;99.90;;;;;;5017570;28;20381;-61
2023/12/05 05:23:33;;;;;;;36.83;22.85;;;1.10;99.90;;;;;;5015909;28;20048;-61
2023/12/05 05:25:59;;;;;;;37.05;24.33;;;1.00;99.90;;;;;;4985969;28;20068;-60
2023/12/05 05:28:25;;;;;;;39.30;24.67;;;1.00;99.90;;;;;;5003587;28;20037;-61
2023/12/05 05:30:54;;;;;;;39.05;24.88;;;1.00;99.90;;;;;;5020447;28;20034;-60
2023/12/05 05:33:24;;;;;;;36.50;23.25;;;1.10;99.90;;;;;;4992487;28;20048;-60
2023/12/05 05:35:50;;;;;;;37.53;23.58;;;1.10;99.90;;;;;;5004954;28;20532;-60
2023/12/05 05:38:16;;;;;;;39.13;24.40;;;1.10;99.90;;;;;;4997707;28;20114;-60
2023/12/05 05:40:42;;;;;;;34.90;23.55;;;1.10;99.90;;;;;;5019888;28;20109;-61
2023/12/05 05:43:08;;;;;;;37.63;24.58;;;1.10;99.90;;;;;;4984997;28;20060;-60
2023/12/05 05:45:34;;;;;;;33.85;22.20;;;1.10;99.90;;;;;;5004029;28;20073;-60
2023/12/05 05:48:00;;;;;;;40.40;24.80;;;1.10;99.90;;;;;;4999933;28;20077;-61
2023/12/05 05:50:26;;;;;;;42.22;25.00;;;1.10;99.90;;;;;;4983845;28;20071;-60
2023/12/05 05:52:52;;;;;;;39.60;23.77;;;1.10;99.90;;;;;;4998071;28;20654;-60
2023/12/05 05:55:24;;;;;;;35.45;22.80;;;1.10;99.90;;;;;;4995834;28;20044;-60
2023/12/05 05:57:50;;;;;;;34.85;22.15;;;1.10;99.90;;;;;;4998459;28;20398;-60
2023/12/05 06:00:17;;;;;;;37.30;23.02;;;1.10;99.90;;;;;;4982909;28;20165;-60
2023/12/05 06:03:28;;;;;;;38.40;23.27;;;1.10;99.90;;;;;;4989277;28;20038;-60
2023/12/05 06:05:56;;;;;;;37.03;23.10;;;1.10;99.90;;;;;;5002503;28;20350;-60
2023/12/05 06:08:22;;;;;;;38.47;22.95;;;1.10;99.90;;;;;;5002163;28;20501;-60
2023/12/05 06:10:47;;;;;;;37.45;23.15;;;1.10;99.90;;;;;;5004879;28;20021;-59
2023/12/05 06:13:13;;;;;;;33.30;22.08;;;1.10;99.90;;;;;;4989186;28;20373;-60
2023/12/05 06:15:39;;;;;;;34.58;22.27;;;1.10;99.90;;;;;;5001589;28;20061;-59
2023/12/05 06:18:04;;;;;;;38.08;23.75;;;1.10;99.90;;;;;;5019204;28;20564;-60
2023/12/05 06:20:30;;;;;;;37.67;24.38;;;1.20;99.90;;;;;;5019216;28;20037;-60
2023/12/05 06:22:56;;;;;;;36.30;22.65;;;1.20;99.90;;;;;;5020427;28;20033;-60
2023/12/05 06:25:22;;;;;;;41.08;24.90;;;1.20;99.90;;;;;;4991681;28;20040;-60
2023/12/05 06:27:48;;;;;;;46.45;25.85;;;1.10;99.90;;;;;;5003498;28;20516;-60
2023/12/05 06:30:14;;;;;;;36.35;24.23;;;1.10;99.90;;;;;;5011931;28;20033;-60
2023/12/05 06:32:40;;;;;;;36.22;21.52;;;1.10;99.90;;;;;;5001451;28;20618;-59
2023/12/05 06:35:06;;;;;;;41.92;24.38;;;1.20;99.90;;;;;;5021594;28;20165;-60
2023/12/05 06:37:31;;;;;;;40.33;24.13;;;1.20;99.90;;;;;;5022219;28;20433;-60
2023/12/05 06:39:57;;;;;;;36.67;22.52;;;1.20;99.90;;;;;;5023944;28;20041;-60
2023/12/05 06:42:23;;;;;;;39.72;23.98;;;1.20;99.90;;;;;;5007745;28;20054;-59
2023/12/05 06:44:48;;;;;;;39.88;22.63;;;1.20;99.90;;;;;;5013598;28;20095;-60
2023/12/05 06:47:33;;;;;;;38.33;23.75;;;1.10;99.90;;;;;;5015086;28;20046;-61
2023/12/05 06:50:05;;;;;;;38.72;23.30;;;1.10;99.90;;;;;;5022761;28;20037;-60
2023/12/05 06:52:30;;;;;;;41.28;25.52;;;1.10;99.90;;;;;;5025704;28;20053;-60
2023/12/05 06:54:56;;;;;;;38.17;24.10;;;1.10;99.90;;;;;;5020102;28;20145;-60
2023/12/05 06:57:22;;;;;;;37.45;22.45;;;1.10;99.90;;;;;;5020041;28;20580;-60
2023/12/05 06:59:47;;;;;;;35.70;23.20;;;1.10;99.90;;;;;;5008055;28;20057;-60
2023/12/05 07:02:13;;;;;;;38.55;22.58;;;1.10;99.90;;;;;;5009708;28;20072;-60
2023/12/05 07:04:39;;;;;;;36.42;23.05;;;1.10;99.90;;;;;;5027014;28;20037;-60
2023/12/05 07:07:06;;;;;;;33.10;21.08;;;1.10;99.90;;;;;;5013238;28;20029;-60
2023/12/05 07:09:34;;;;;;;40.13;22.02;;;1.10;99.90;;;;;;4994935;28;20503;-60
2023/12/05 07:12:00;;;;;;;39.25;22.48;;;1.10;99.90;;;;;;4992512;28;20123;-60
2023/12/05 07:14:25;;;;;;;40.70;23.02;;;1.10;99.90;;;;;;5024306;28;20033;-59
2023/12/05 07:16:51;;;;;;;37.15;22.65;;;1.10;99.90;;;;;;4994784;28;20041;-60
2023/12/05 07:19:17;;;;;;;40.50;25.30;;;1.10;99.90;;;;;;4998892;28;20048;-60
2023/12/05 07:21:42;;;;;;;38.22;23.35;;;1.10;99.90;;;;;;4999835;28;20041;-60
2023/12/05 07:24:08;;;;;;;40.08;22.85;;;1.10;99.90;;;;;;5030105;28;20488;-60
2023/12/05 07:26:34;;;;;;;41.95;24.70;;;1.10;99.90;;;;;;5013205;28;20116;-60
2023/12/05 07:29:00;;;;;;;40.47;23.92;;;1.10;99.90;;;;;;5026144;28;20128;-60
2023/12/05 07:31:26;;;;;;;31.50;20.42;;;1.10;99.90;;;;;;5026893;28;20405;-60
2023/12/05 07:33:51;;;;;;;36.78;22.30;;;1.10;99.90;;;;;;5011658;28;20040;-60
2023/12/05 07:36:17;;;;;;;38.42;23.15;;;1.10;99.90;;;;;;5011692;28;20453;-60
2023/12/05 07:38:43;;;;;;;42.45;24.15;;;1.10;99.90;;;;;;5027486;28;20040;-60
2023/12/05 07:41:19;;;;;;;37.85;22.25;;;1.10;99.90;;;;;;5008810;28;20048;-60
2023/12/05 07:43:45;;;;;;;34.83;21.40;;;1.10;99.90;;;;;;5004156;28;20512;-59
2023/12/05 07:46:10;;;;;;;38.42;21.40;;;1.10;99.90;;;;;;4989090;28;20041;-60
2023/12/05 07:48:36;;;;;;;35.08;21.60;;;1.10;99.90;;;;;;5021391;28;20045;-60
2023/12/05 07:51:02;;;;;;;36.05;21.58;;;1.10;99.90;;;;;;5026940;28;20124;-60
2023/12/05 07:53:28;;;;;;;39.22;22.58;;;1.10;99.90;;;;;;5007803;28;20034;-59
2023/12/05 07:55:54;;;;;;;39.92;23.17;;;1.10;99.90;;;;;;5019010;28;20045;-60
2023/12/05 07:58:19;;;;;;;36.13;22.17;;;1.10;99.90;;;;;;5004159;28;20054;-59
2023/12/05 08:00:46;;;;;;;32.53;19.88;;;1.10;99.90;;;;;;4985378;28;20053;-60
2023/12/05 08:03:13;;;;;;;37.65;22.20;;;1.10;99.90;;;;;;5015935;28;20069;-60
2023/12/05 08:05:39;;;;;;;34.95;21.10;;;1.10;99.90;;;;;;5024637;28;20508;-60
2023/12/05 08:08:05;;;;;;;38.20;23.23;;;1.10;99.90;;;;;;4999346;28;20080;-60
2023/12/05 08:10:30;;;;;;;39.65;22.40;;;1.10;99.90;;;;;;4992852;28;20119;-60
2023/12/05 08:12:56;;;;;;;33.67;19.98;;;1.10;99.90;;;;;;5016507;28;20132;-61
2023/12/05 08:15:22;;;;;;;33.80;21.42;;;1.10;99.90;;;;;;4987137;28;20037;-60
2023/12/05 08:17:48;;;;;;;31.23;19.83;;;1.10;99.90;;;;;;5000551;28;20037;-60
2023/12/05 08:20:13;;;;;;;38.13;21.85;;;1.10;99.90;;;;;;4983223;28;20049;-61
2023/12/05 08:22:40;;;;;;;33.42;21.40;;;1.10;99.90;;;;;;5018869;28;20049;-60
2023/12/05 08:25:08;;;;;;;36.30;20.08;;;1.20;99.90;;;;;;5044663;23;20547;-61
2023/12/05 08:27:33;;;;;;;37.58;22.52;;;1.20;99.90;;;;;;5033255;28;20045;-61
2023/12/05 08:29:59;;;;;;;34.00;20.63;;;1.20;99.90;;;;;;5012986;28;20426;-61
2023/12/05 08:32:25;;;;;;;35.70;20.67;;;1.20;99.90;;;;;;5015642;28;20044;-61
2023/12/05 08:34:50;;;;;;;39.47;21.13;;;1.20;99.90;;;;;;5018453;28;20064;-60
2023/12/05 08:37:16;;;;;;;34.47;21.13;;;1.20;99.90;;;;;;4997173;28;20303;-60
2023/12/05 08:39:42;;;;;;;34.22;21.63;;;1.20;99.90;;;;;;4986227;28;20442;-60
2023/12/05 08:42:08;;;;;;;36.17;21.35;;;1.20;99.90;;;;;;4990260;28;20052;-60
2023/12/05 08:44:33;;;;;;;34.65;21.85;;;1.20;99.90;;;;;;5020813;28;20060;-60
2023/12/05 08:46:59;;;;;;;40.03;23.25;;;1.30;99.90;;;;;;5005347;28;20030;-60
2023/12/05 08:49:25;;;;;;;35.53;20.75;;;1.30;99.90;;;;;;5001856;28;20504;-60
2023/12/05 08:51:51;;;;;;;40.35;24.00;;;1.30;99.90;;;;;;4999779;28;20052;-60
2023/12/05 08:54:16;;;;;;;36.05;22.27;;;1.30;99.90;;;;;;4997859;28;20036;-61
2023/12/05 08:56:42;;;;;;;36.33;20.85;;;1.30;99.90;;;;;;5001180;28;20030;-61
2023/12/05 08:59:08;;;;;;;38.60;22.27;;;1.30;99.90;;;;;;5004043;28;20049;-59
2023/12/05 09:01:33;;;;;;;35.08;20.50;;;1.20;99.90;;;;;;5007172;28;20038;-60
2023/12/05 09:03:59;;;;;;;34.28;21.35;;;1.30;99.90;;;;;;4980895;28;20049;-60
2023/12/05 09:06:25;;;;;;;34.90;21.02;;;1.30;99.90;;;;;;5016109;28;20041;-60
2023/12/05 09:08:51;;;;;;;32.00;20.95;;;1.30;99.90;;;;;;4999018;28;20468;-60
2023/12/05 09:11:17;;;;;;;36.05;21.63;;;1.30;99.90;;;;;;4996952;28;20135;-60
2023/12/05 09:13:43;;;;;;;35.75;20.98;;;1.30;99.90;;;;;;5003364;28;20124;-61
2023/12/05 09:16:09;;;;;;;35.97;22.23;;;1.30;99.90;;;;;;4985068;28;20073;-60
2023/12/05 09:18:35;;;;;;;38.47;23.05;;;1.30;99.90;;;;;;5020641;28;20470;-60
2023/12/05 09:21:00;;;;;;;34.35;21.73;;;1.30;99.90;;;;;;4985549;28;20037;-61
2023/12/05 09:23:26;;;;;;;35.92;22.00;;;1.30;99.90;;;;;;5002818;28;20040;-61
2023/12/05 09:25:53;;;;;;;38.17;22.88;;;1.30;99.90;;;;;;5005283;28;20107;-61
2023/12/05 09:28:18;;;;;;;35.95;21.83;;;1.30;99.90;;;;;;5001696;28;20045;-61
2023/12/05 09:30:44;;;;;;;37.15;21.60;;;1.30;99.90;;;;;;5016136;28;20920;-61
2023/12/05 09:33:10;;;;;;;32.40;21.58;;;1.20;99.90;;;;;;4991072;28;20070;-61
2023/12/05 09:35:36;;;;;;;37.53;22.23;;;1.30;99.90;;;;;;4983976;28;20560;-61
2023/12/05 09:38:02;;;;;;;33.85;21.85;;;1.20;99.90;;;;;;5002843;28;20033;-61
2023/12/05 09:40:56;;;;;;;39.65;23.25;;;1.30;99.90;;;;;;5008142;28;20500;-61
2023/12/05 09:43:23;;;;;;;37.33;22.55;;;1.30;99.90;;;;;;4996849;28;20167;-61
2023/12/05 09:46:00;;;;;;;34.88;21.52;;;1.30;99.90;;;;;;4996337;28;20049;-61
2023/12/05 09:48:28;;;;;;;35.25;21.45;;;1.30;99.90;;;;;;5018544;28;20720;-61
2023/12/05 09:50:56;;;;;;;33.72;20.48;;;1.30;99.90;;;;;;4988612;28;20076;-60
2023/12/05 09:53:23;;;;;;;40.00;23.55;;;1.30;99.90;;;;;;5020587;28;20037;-61
2023/12/05 09:55:49;;;;;;;39.85;23.08;;;1.30;99.90;;;;;;4982473;28;20049;-61
2023/12/05 09:58:16;;;;;;;35.53;22.02;;;1.40;99.90;;;;;;5017121;28;20435;-61
2023/12/05 10:00:44;;;;;;;35.75;21.45;;;1.40;99.90;;;;;;5001979;28;20587;-61
2023/12/05 10:03:13;;;;;;;35.72;22.35;;;1.40;99.90;;;;;;4999017;28;20042;-61
2023/12/05 10:05:42;;;;;;;36.78;22.35;;;1.40;99.90;;;;;;4983910;28;20132;-61
2023/12/05 10:08:09;;;;;;;34.00;21.23;;;1.40;99.90;;;;;;5018639;28;20151;-61
2023/12/05 10:11:30;;;;;;;34.30;21.23;;;1.40;99.90;;;;;;4999127;28;20073;-61
2023/12/05 10:13:57;;;;;;;35.40;21.73;;;1.40;99.90;;;;;;5012977;28;20033;-61
2023/12/05 10:16:25;;;;;;;30.52;21.10;;;1.40;99.90;;;;;;5027253;28;20376;-60
2023/12/05 10:18:52;;;;;;;33.95;21.80;;;1.40;99.90;;;;;;4989653;28;20080;-61
2023/12/05 10:21:18;;;;;;;33.92;21.30;;;1.40;99.90;;;;;;5002666;28;20064;-61
2023/12/05 10:23:43;;;;;;;34.72;21.77;;;1.30;99.90;;;;;;5007792;28;20238;-61
2023/12/05 10:26:09;;;;;;;33.90;21.70;;;1.30;99.90;;;;;;5007450;28;20508;-61
2023/12/05 10:28:52;;;;;;;34.60;21.70;;;1.40;99.90;;;;;;4999362;28;20523;-61
2023/12/05 10:31:18;;;;;;;29.52;19.33;;;1.30;99.90;;;;;;5004219;28;20057;-61
2023/12/05 10:33:46;;;;;;;31.05;20.08;;;1.30;99.90;;;;;;5005309;28;20045;-61
2023/12/05 10:36:12;;;;;;;31.90;21.65;;;1.30;99.90;;;;;;5004087;28;20045;-60
2023/12/05 10:38:38;;;;;;;33.47;21.02;;;1.30;99.90;;;;;;4980455;28;20046;-60
2023/12/05 10:41:04;;;;;;;34.47;22.15;;;1.30;99.90;;;;;;4983145;28;20044;-61
2023/12/05 10:43:30;;;;;;;33.63;21.15;;;1.30;99.90;;;;;;5012399;28;20124;-61
2023/12/05 10:45:56;;;;;;;35.65;21.33;;;1.30;99.90;;;;;;4993321;28;20052;-59
2023/12/05 10:48:23;;;;;;;34.42;22.13;;;1.30;99.90;;;;;;4979101;28;20555;-61
2023/12/05 10:50:51;;;;;;;35.15;21.17;;;1.30;99.90;;;;;;4994565;28;20122;-61
2023/12/05 10:53:20;;;;;;;34.15;20.83;;;1.40;99.90;;;;;;5014049;28;20046;-60
2023/12/05 10:55:46;;;;;;;32.38;21.63;;;1.30;99.90;;;;;;5009611;28;20125;-60
2023/12/05 10:58:13;;;;;;;32.70;20.08;;;1.40;99.90;;;;;;4994364;28;20500;-61
2023/12/05 11:00:40;;;;;;;33.45;20.42;;;1.40;99.90;;;;;;4989069;28;20050;-59
2023/12/05 11:03:06;;;;;;;33.28;20.33;;;1.40;99.90;;;;;;5011737;28;20088;-61
2023/12/05 11:05:33;;;;;;;32.53;20.30;;;1.40;99.90;;;;;;5011660;28;20125;-59
2023/12/05 11:08:00;;;;;;;33.83;20.02;;;1.40;99.90;;;;;;5011699;28;20481;-59
2023/12/05 11:10:27;;;;;;;31.48;19.15;;;1.40;99.90;;;;;;4997400;28;20037;-59
2023/12/05 11:12:54;;;;;;;36.30;22.73;;;1.40;99.90;;;;;;5000199;28;20090;-60
2023/12/05 11:15:38;;;;;;;31.27;20.40;;;1.40;99.90;;;;;;5014724;28;20077;-61
2023/12/05 11:18:18;;;;;;;31.33;19.70;;;1.50;99.90;;;;;;5011878;28;20124;-61
2023/12/05 11:21:05;;;;;;;32.97;20.10;;;1.50;99.90;;;;;;4997209;28;20049;-60
2023/12/05 11:24:00;;;;;;;28.85;19.40;;;1.50;99.90;;;;;;4996825;28;21238;-61
2023/12/05 11:26:35;;;;;;;32.60;20.15;;;1.50;99.90;;;;;;5000535;28;20049;-61
2023/12/05 11:29:38;;;;;;;33.30;21.33;;;1.50;99.90;;;;;;5004513;28;20049;-60
2023/12/05 11:32:44;;;;;;;32.47;19.83;;;1.50;99.90;;;;;;5018524;28;20038;-61
2023/12/05 11:35:47;;;;;;;31.75;19.48;;;1.50;99.90;;;;;;5001030;28;20056;-60
2023/12/05 11:38:17;;;;;;;34.70;21.70;;;1.50;99.90;;;;;;5002853;28;20045;-61
2023/12/05 11:40:43;;;;;;;35.95;22.25;;;1.60;99.90;;;;;;5010842;28;20045;-60
2023/12/05 11:43:12;;;;;;;35.03;21.88;;;1.60;99.90;;;;;;5009576;28;20072;-61
2023/12/05 11:45:43;;;;;;;37.40;22.02;;;1.60;99.90;;;;;;5004956;28;20046;-60
2023/12/05 11:48:25;;;;;;;32.15;20.00;;;1.60;99.90;;;;;;4999016;28;20103;-60
2023/12/05 11:50:51;;;;;;;34.03;20.73;;;1.60;99.90;;;;;;5020291;28;20039;-60
2023/12/05 11:53:20;;;;;;;32.25;20.95;;;1.60;99.90;;;;;;5024672;28;20198;-60
2023/12/05 11:55:47;;;;;;;35.95;21.30;;;1.70;99.90;;;;;;4999224;28;20445;-60
2023/12/05 11:58:34;;;;;;;35.97;21.45;;;1.60;99.90;;;;;;5036673;28;20108;-60
2023/12/05 12:01:06;;;;;;;34.10;22.38;;;1.70;99.90;;;;;;5024984;28;20045;-59
2023/12/05 12:03:52;;;;;;;34.88;22.27;;;1.80;99.90;;;;;;5012095;28;20045;-60
2023/12/05 12:06:23;;;;;;;36.10;22.55;;;1.80;99.90;;;;;;5010248;28;20120;-60
2023/12/05 12:08:52;;;;;;;34.78;20.67;;;1.90;99.90;;;;;;5025618;28;20416;-60
2023/12/05 12:11:20;;;;;;;33.90;21.83;;;1.90;99.90;;;;;;5007239;28;20397;-61
2023/12/05 12:13:45;;;;;;;34.90;21.85;;;1.90;99.90;;;;;;5024019;28;20068;-60
2023/12/05 12:16:16;;;;;;;29.85;19.88;;;1.90;99.90;;;;;;5037005;28;20537;-61
2023/12/05 12:18:42;;;;;;;30.40;20.35;;;2.00;99.90;;;;;;5020601;28;20111;-61
2023/12/05 12:21:07;;;;;;;33.50;21.02;;;1.90;99.90;;;;;;5034804;28;20041;-61
2023/12/05 12:23:33;;;;;;;33.22;21.30;;;1.90;99.90;;;;;;4991524;28;20100;-60
2023/12/05 12:26:00;;;;;;;33.65;21.73;;;1.90;99.90;;;;;;5006182;28;20049;-61
2023/12/05 12:28:33;;;;;;;31.77;21.35;;;2.00;99.90;;;;;;5009944;28;20120;-60
2023/12/05 12:30:59;;;;;;;29.38;19.73;;;2.00;99.90;;;;;;5006359;28;20037;-61
2023/12/05 12:33:46;;;;;;;37.60;21.27;;;2.10;99.90;;;;;;5010519;28;20124;-60
2023/12/05 12:36:12;;;;;;;34.25;21.38;;;2.10;99.90;;;;;;5007087;28;20100;-60
2023/12/05 12:38:40;;;;;;;33.60;21.77;;;2.10;99.90;;;;;;4990815;28;20125;-60
2023/12/05 12:41:09;;;;;;;35.40;21.13;;;2.10;99.90;;;;;;5008132;28;20080;-60